createdAt,value
2022-11-14T00:00:30.821Z,25.02
2022-11-14T00:03:35.377Z,23.42
2022-11-14T00:06:40.060Z,22.98
2022-11-14T00:09:44.828Z,20.75
2022-11-14T00:12:49.564Z,21.10
2022-11-14T00:15:54.507Z,20.25
2022-11-14T00:18:59.211Z,20.55
2022-11-14T00:22:03.710Z,21.40
2022-11-14T00:25:08.462Z,20.60
2022-11-14T00:28:13.449Z,21.75
2022-11-14T00:31:18.310Z,22.55
2022-11-14T00:34:23.333Z,20.67
2022-11-14T00:37:28.399Z,21.38
2022-11-14T00:40:33.043Z,23.33
2022-11-14T00:43:37.726Z,27.00
2022-11-14T00:46:42.647Z,23.27
2022-11-14T00:49:47.644Z,20.25
2022-11-14T00:52:52.411Z,18.52
2022-11-14T00:55:57.334Z,18.23
2022-11-14T00:59:01.873Z,17.88
2022-11-14T01:02:06.642Z,18.77
2022-11-14T01:05:11.149Z,17.15
2022-11-14T01:08:18.232Z,17.55
2022-11-14T01:11:23.553Z,18.48
2022-11-14T01:14:28.136Z,17.65
2022-11-14T01:17:32.843Z,18.83
2022-11-14T01:20:44.305Z,18.65
2022-11-14T01:23:49.134Z,17.00
2022-11-14T01:26:56.998Z,16.92
2022-11-14T01:30:01.700Z,17.13
2022-11-14T01:33:06.502Z,16.50
2022-11-14T01:36:11.351Z,18.23
2022-11-14T01:39:16.393Z,21.20
2022-11-14T01:42:24.515Z,22.80
2022-11-14T01:45:50.756Z,26.10
2022-11-14T01:49:10.732Z,24.65
2022-11-14T01:52:27.435Z,23.60
2022-11-14T01:55:32.377Z,25.88
2022-11-14T01:58:40.156Z,26.48
2022-11-14T02:01:50.530Z,26.27
2022-11-14T02:05:09.339Z,26.52
2022-11-14T02:08:14.877Z,24.20
2022-11-14T02:11:19.675Z,23.00
2022-11-14T02:14:24.253Z,22.08
2022-11-14T02:17:30.858Z,21.20
2022-11-14T02:20:43.366Z,21.23
2022-11-14T02:23:48.505Z,20.67
2022-11-14T02:26:53.542Z,20.60
2022-11-14T02:30:11.832Z,21.30
2022-11-14T02:33:17.589Z,19.02
2022-11-14T02:36:22.359Z,19.08
2022-11-14T02:39:27.371Z,22.90
2022-11-14T02:42:32.641Z,24.83
2022-11-14T02:45:37.843Z,25.30
2022-11-14T02:48:42.782Z,25.33
2022-11-14T02:51:47.347Z,24.00
2022-11-14T02:54:54.581Z,21.52
2022-11-14T02:57:59.434Z,19.77
2022-11-14T03:01:20.199Z,19.30
2022-11-14T03:04:26.372Z,17.58
2022-11-14T03:07:32.741Z,17.42
2022-11-14T03:10:37.800Z,16.92
2022-11-14T03:13:42.724Z,19.08
2022-11-14T03:16:47.278Z,17.83
2022-11-14T03:19:51.882Z,16.45
2022-11-14T03:22:56.863Z,16.67
2022-11-14T03:26:02.962Z,17.02
2022-11-14T03:29:08.030Z,18.48
2022-11-14T03:32:12.686Z,17.65
2022-11-14T03:35:17.382Z,17.95
2022-11-14T03:38:24.667Z,19.15
2022-11-14T03:41:29.227Z,19.77
2022-11-14T03:44:34.120Z,19.00
2022-11-14T03:47:38.997Z,19.83
2022-11-14T03:50:43.947Z,19.98
2022-11-14T03:53:48.510Z,20.50
2022-11-14T03:56:53.254Z,19.73
2022-11-14T03:59:57.839Z,21.25
2022-11-14T04:03:02.743Z,18.05
2022-11-14T04:06:07.699Z,18.30
2022-11-14T04:09:12.690Z,17.83
2022-11-14T04:12:17.674Z,18.40
2022-11-14T04:15:22.303Z,16.27
2022-11-14T04:18:27.868Z,17.35
2022-11-14T04:21:33.052Z,15.38
2022-11-14T04:24:37.791Z,15.45
2022-11-14T04:27:43.497Z,15.68
2022-11-14T04:30:48.418Z,15.77
2022-11-14T04:33:53.222Z,15.98
2022-11-14T04:36:57.758Z,16.00
2022-11-14T04:40:02.944Z,16.00
2022-11-14T04:43:07.936Z,16.02
2022-11-14T04:46:12.804Z,17.25
2022-11-14T04:49:17.567Z,17.00
2022-11-14T04:52:23.023Z,15.50
2022-11-14T04:55:27.776Z,15.70
2022-11-14T04:58:33.263Z,15.93
2022-11-14T05:01:38.418Z,15.65
2022-11-14T05:04:44.525Z,16.05
2022-11-14T05:07:49.511Z,15.70
2022-11-14T05:10:54.099Z,15.88
2022-11-14T05:13:58.621Z,16.55
2022-11-14T05:17:03.437Z,16.92
2022-11-14T05:20:08.748Z,15.65
2022-11-14T05:23:21.688Z,16.23
2022-11-14T05:26:26.424Z,16.38
2022-11-14T05:29:31.236Z,15.70
2022-11-14T05:32:36.030Z,15.70
2022-11-14T05:35:40.815Z,15.30
2022-11-14T05:38:45.702Z,14.70
2022-11-14T05:41:50.357Z,15.80
2022-11-14T05:44:54.802Z,15.20
2022-11-14T05:47:59.699Z,15.38
2022-11-14T05:51:06.229Z,14.45
2022-11-14T05:54:10.773Z,14.60
2022-11-14T05:57:15.889Z,14.18
2022-11-14T06:00:20.707Z,13.73
2022-11-14T06:03:25.510Z,13.63
2022-11-14T06:06:30.276Z,15.60
2022-11-14T06:09:35.337Z,13.20
2022-11-14T06:12:40.712Z,12.85
2022-11-14T06:15:45.626Z,13.90
2022-11-14T06:18:53.289Z,13.52
2022-11-14T06:21:57.973Z,12.93
2022-11-14T06:25:03.229Z,13.63
2022-11-14T06:28:07.679Z,15.00
2022-11-14T06:31:13.262Z,14.23
2022-11-14T06:34:17.813Z,14.63
2022-11-14T06:37:22.835Z,13.82
2022-11-14T06:40:27.786Z,13.73
2022-11-14T06:43:37.118Z,13.90
2022-11-14T06:46:41.606Z,15.77
2022-11-14T06:49:46.230Z,14.63
2022-11-14T06:52:50.877Z,15.70
2022-11-14T06:55:58.041Z,14.23
2022-11-14T06:59:03.622Z,18.33
2022-11-14T07:02:15.392Z,17.10
2022-11-14T07:05:22.340Z,17.75
2022-11-14T07:08:27.393Z,18.63
2022-11-14T07:11:32.230Z,17.35
2022-11-14T07:14:37.231Z,19.45
2022-11-14T07:17:42.033Z,18.30
2022-11-14T07:20:47.549Z,19.80
2022-11-14T07:23:52.340Z,18.58
2022-11-14T07:26:56.926Z,18.52
2022-11-14T07:30:01.833Z,19.90
2022-11-14T07:33:06.764Z,19.30
2022-11-14T07:36:13.876Z,18.85
2022-11-14T07:39:18.626Z,20.33
2022-11-14T07:42:23.314Z,19.23
2022-11-14T07:45:29.024Z,20.88
2022-11-14T07:48:34.779Z,22.55
2022-11-14T07:51:39.584Z,22.25
2022-11-14T07:54:44.692Z,22.17
2022-11-14T07:57:53.292Z,21.85
2022-11-14T08:01:02.902Z,22.00
2022-11-14T08:04:07.819Z,21.15
2022-11-14T08:07:12.837Z,21.05
2022-11-14T08:10:18.226Z,21.95
2022-11-14T08:13:32.237Z,22.75
2022-11-14T08:16:37.948Z,21.13
2022-11-14T08:19:42.988Z,21.58
2022-11-14T08:22:47.964Z,20.98
2022-11-14T08:25:53.104Z,22.63
2022-11-14T08:28:57.931Z,21.52
2022-11-14T08:32:02.778Z,22.05
2022-11-14T08:35:07.926Z,23.08
2022-11-14T08:38:12.768Z,20.27
2022-11-14T08:41:18.204Z,20.08
2022-11-14T08:44:23.499Z,21.17
2022-11-14T08:47:28.007Z,19.75
2022-11-14T08:50:32.735Z,21.08
2022-11-14T08:53:37.774Z,23.85
2022-11-14T08:56:42.504Z,29.52
2022-11-14T08:59:47.533Z,30.40
2022-11-14T09:02:51.930Z,30.77
2022-11-14T09:05:56.512Z,28.08
2022-11-14T09:09:01.379Z,26.63
2022-11-14T09:12:06.417Z,27.00
2022-11-14T09:15:11.950Z,22.70
2022-11-14T09:18:16.404Z,24.42
2022-11-14T09:21:21.300Z,26.95
2022-11-14T09:24:26.287Z,31.90
2022-11-14T09:27:30.817Z,32.88
2022-11-14T09:30:37.215Z,30.73
2022-11-14T09:33:42.021Z,29.65
2022-11-14T09:36:47.241Z,26.35
2022-11-14T09:39:52.010Z,23.40
2022-11-14T09:43:12.583Z,28.27
2022-11-14T09:46:26.263Z,24.17
2022-11-14T09:49:36.288Z,25.98
2022-11-14T09:52:46.244Z,25.27
2022-11-14T09:55:51.034Z,28.27
2022-11-14T09:58:56.574Z,28.02
2022-11-14T10:02:41.294Z,30.23
2022-11-14T10:05:55.196Z,30.73
2022-11-14T10:09:27.446Z,28.67
2022-11-14T10:12:38.005Z,28.02
2022-11-14T10:15:59.526Z,28.77
2022-11-14T10:19:21.049Z,26.40
2022-11-14T10:23:02.545Z,26.70
2022-11-14T10:26:16.236Z,25.73
2022-11-14T10:29:36.804Z,27.08
2022-11-14T10:32:56.720Z,27.40
2022-11-14T10:36:11.961Z,27.02
2022-11-14T10:39:22.339Z,28.98
2022-11-14T10:42:34.877Z,24.08
2022-11-14T10:45:43.830Z,32.27
2022-11-14T10:48:50.688Z,32.25
2022-11-14T10:52:00.260Z,33.85
2022-11-14T10:55:15.301Z,36.55
2022-11-14T10:58:21.042Z,33.35
2022-11-14T11:01:36.648Z,35.85
2022-11-14T11:04:43.376Z,37.95
2022-11-14T11:08:36.168Z,35.25
2022-11-14T11:11:32.855Z,38.95
2022-11-14T11:14:37.641Z,37.55
2022-11-14T11:18:06.380Z,33.33
2022-11-14T11:21:13.191Z,32.05
2022-11-14T11:24:35.069Z,32.97
2022-11-14T11:27:39.426Z,31.52
2022-11-14T11:31:07.696Z,32.85
2022-11-14T11:34:12.422Z,35.63
2022-11-14T11:37:40.352Z,37.05
2022-11-14T11:40:48.546Z,30.15
2022-11-14T11:44:00.826Z,31.38
2022-11-14T11:47:10.220Z,27.73
2022-11-14T11:50:17.131Z,27.00
2022-11-14T11:53:41.099Z,33.17
2022-11-14T11:56:48.352Z,27.77
2022-11-14T11:59:59.541Z,27.58
2022-11-14T12:03:05.680Z,28.38
2022-11-14T12:06:10.827Z,29.55
2022-11-14T12:09:21.949Z,26.50
2022-11-14T12:12:36.258Z,25.35
2022-11-14T12:15:52.967Z,26.30
2022-11-14T12:19:31.518Z,24.02
2022-11-14T12:22:46.202Z,22.23
2022-11-14T12:26:15.301Z,23.00
2022-11-14T12:29:35.908Z,22.10
2022-11-14T12:32:53.884Z,22.98
2022-11-14T12:36:00.824Z,21.23
2022-11-14T12:39:05.704Z,23.10
2022-11-14T12:42:15.784Z,22.27
2022-11-14T12:45:42.426Z,22.98
2022-11-14T12:48:47.206Z,22.60
2022-11-14T12:51:51.940Z,22.58
2022-11-14T12:54:56.342Z,20.63
2022-11-14T12:58:01.033Z,20.05
2022-11-14T13:01:20.682Z,24.27
2022-11-14T13:04:34.661Z,23.67
2022-11-14T13:07:51.567Z,24.02
2022-11-14T13:10:56.209Z,21.23
2022-11-14T13:14:20.665Z,23.42
2022-11-14T13:17:45.463Z,24.15
2022-11-14T13:21:24.132Z,20.05
2022-11-14T13:25:03.304Z,21.23
2022-11-14T13:28:36.509Z,18.98
2022-11-14T13:31:49.541Z,20.30
2022-11-14T13:34:59.865Z,20.85
2022-11-14T13:38:25.426Z,20.30
2022-11-14T13:41:46.627Z,20.17
2022-11-14T13:45:11.825Z,20.48
2022-11-14T13:48:37.233Z,21.40
2022-11-14T13:51:43.952Z,20.83
2022-11-14T13:54:49.866Z,21.08
2022-11-14T13:58:25.428Z,21.88
2022-11-14T14:01:30.390Z,23.30
2022-11-14T14:04:53.662Z,21.67
2022-11-14T14:08:19.719Z,25.30
2022-11-14T14:11:46.197Z,28.00
2022-11-14T14:14:51.203Z,30.38
2022-11-14T14:18:18.413Z,29.40
2022-11-14T14:21:57.205Z,28.23
2022-11-14T14:25:14.592Z,28.58
2022-11-14T14:28:30.572Z,30.23
2022-11-14T14:31:39.819Z,28.92
2022-11-14T14:34:44.968Z,26.90
2022-11-14T14:37:54.132Z,25.65
2022-11-14T14:40:58.726Z,27.90
2022-11-14T14:44:03.312Z,28.80
2022-11-14T14:47:29.929Z,28.38
2022-11-14T14:50:49.234Z,27.42
2022-11-14T14:53:54.122Z,31.13
2022-11-14T14:57:02.889Z,30.73
2022-11-14T15:00:18.306Z,29.88
2022-11-14T15:03:23.729Z,32.20
2022-11-14T15:06:32.400Z,31.85
2022-11-14T15:09:37.095Z,30.80
2022-11-14T15:12:42.496Z,31.75
2022-11-14T15:15:47.039Z,33.00
2022-11-14T15:18:55.809Z,36.13
2022-11-14T15:22:21.263Z,34.90
2022-11-14T15:25:27.145Z,38.15
2022-11-14T15:28:32.400Z,38.67
2022-11-14T15:31:37.545Z,47.17
2022-11-14T15:34:42.275Z,49.80
2022-11-14T15:41:36.396Z,54.83
2022-11-14T15:44:43.554Z,53.35
2022-11-14T15:47:50.769Z,51.90
2022-11-14T15:50:56.065Z,49.17
2022-11-14T15:54:01.067Z,53.28
2022-11-14T15:57:14.618Z,58.28
2022-11-14T16:00:19.964Z,57.85
2022-11-14T16:03:25.208Z,55.50
2022-11-14T16:06:31.465Z,53.58
2022-11-14T16:09:36.711Z,53.35
2022-11-14T16:12:41.712Z,52.53
2022-11-14T16:15:46.815Z,54.75
2022-11-14T16:18:52.777Z,51.72
2022-11-14T16:22:02.596Z,52.10
2022-11-14T16:25:17.091Z,53.63
2022-11-14T16:28:21.867Z,54.42
2022-11-14T16:31:26.913Z,53.38
2022-11-14T16:34:32.107Z,54.92
2022-11-14T16:37:36.865Z,54.33
2022-11-14T16:40:44.451Z,59.75
2022-11-14T16:43:49.023Z,56.40
2022-11-14T16:46:53.736Z,57.08
2022-11-14T16:50:01.332Z,57.08
2022-11-14T16:53:06.227Z,54.13
2022-11-14T16:56:12.763Z,57.95
2022-11-14T16:59:17.602Z,59.15
2022-11-14T17:02:22.691Z,63.45
2022-11-14T17:05:28.107Z,61.00
2022-11-14T17:08:33.225Z,63.38
2022-11-14T17:11:38.895Z,63.83
2022-11-14T17:14:44.076Z,49.97
2022-11-14T17:17:50.306Z,50.47
2022-11-14T17:20:55.317Z,54.58
2022-11-14T17:24:03.992Z,56.28
2022-11-14T17:27:09.364Z,53.75
2022-11-14T17:30:14.484Z,57.10
2022-11-14T17:33:19.148Z,63.70
2022-11-14T17:36:26.344Z,64.40
2022-11-14T17:39:31.160Z,63.75
2022-11-14T17:42:35.887Z,61.15
2022-11-14T17:45:41.414Z,56.97
2022-11-14T17:48:46.860Z,55.97
2022-11-14T17:51:51.481Z,56.28
2022-11-14T17:54:56.408Z,62.53
2022-11-14T17:58:01.271Z,57.88
2022-11-14T18:01:13.061Z,52.40
2022-11-14T18:04:18.235Z,52.65
2022-11-14T18:07:22.931Z,51.30
2022-11-14T18:10:28.040Z,50.88
2022-11-14T18:13:33.560Z,48.03
2022-11-14T18:17:05.343Z,53.70
2022-11-14T18:20:03.380Z,52.53
2022-11-14T18:23:08.084Z,52.28
2022-11-14T18:26:16.989Z,50.38
2022-11-14T18:29:22.040Z,49.67
2022-11-14T18:32:26.876Z,54.13
2022-11-14T18:35:31.706Z,58.15
2022-11-14T18:38:36.513Z,58.78
2022-11-14T18:41:41.752Z,54.00
2022-11-14T18:44:46.424Z,55.38
2022-11-14T18:47:51.325Z,51.72
2022-11-14T18:51:04.728Z,47.90
2022-11-14T18:54:14.424Z,51.78
2022-11-14T18:57:18.956Z,54.00
2022-11-14T19:00:23.832Z,54.42
2022-11-14T19:03:29.882Z,49.20
2022-11-14T19:06:36.977Z,51.20
2022-11-14T19:09:41.469Z,51.40
2022-11-14T19:12:49.314Z,49.83
2022-11-14T19:15:54.104Z,48.17
2022-11-14T19:18:59.306Z,48.45
2022-11-14T19:22:04.179Z,51.88
2022-11-14T19:25:09.362Z,51.85
2022-11-14T19:28:13.815Z,51.80
2022-11-14T19:31:19.671Z,52.45
2022-11-14T19:34:24.887Z,59.90
2022-11-14T19:37:29.428Z,59.97
2022-11-14T19:40:34.083Z,63.33
2022-11-14T19:43:39.856Z,58.20
2022-11-14T19:46:47.769Z,57.28
2022-11-14T19:49:53.445Z,59.03
2022-11-14T19:52:58.042Z,57.05
2022-11-14T19:56:14.273Z,63.65
2022-11-14T19:59:23.080Z,66.78
2022-11-14T20:02:29.552Z,67.22
2022-11-14T20:05:34.154Z,60.85
2022-11-14T20:08:38.721Z,66.95
2022-11-14T20:11:43.680Z,72.38
2022-11-14T20:14:48.610Z,67.53
2022-11-14T20:17:53.673Z,69.57
2022-11-14T20:21:03.111Z,71.50
2022-11-14T20:24:11.187Z,64.05
2022-11-14T20:27:15.977Z,70.45
2022-11-14T20:30:21.055Z,57.55
2022-11-14T20:33:26.320Z,56.05
2022-11-14T20:36:49.922Z,63.75
2022-11-14T20:39:55.874Z,54.97
2022-11-14T20:43:00.891Z,56.72
2022-11-14T20:46:08.044Z,52.28
2022-11-14T20:49:12.962Z,46.72
2022-11-14T20:52:18.774Z,45.25
2022-11-14T20:55:23.622Z,47.40
2022-11-14T20:58:28.692Z,47.17
2022-11-14T21:01:34.650Z,51.25
2022-11-14T21:04:41.374Z,50.05
2022-11-14T21:07:46.027Z,53.88
2022-11-14T21:10:58.566Z,59.22
2022-11-14T21:14:04.645Z,77.80
2022-11-14T21:17:09.458Z,67.30
2022-11-14T21:20:14.480Z,69.50
2022-11-14T21:23:19.603Z,69.63
2022-11-14T21:26:31.992Z,77.78
2022-11-14T21:29:36.819Z,78.85
2022-11-14T21:32:41.607Z,80.85
2022-11-14T21:35:46.703Z,78.93
2022-11-14T21:38:51.662Z,75.63
2022-11-14T21:41:55.999Z,75.50
2022-11-14T21:45:00.733Z,90.07
2022-11-14T21:48:05.556Z,78.63
2022-11-14T21:51:18.692Z,80.32
2022-11-14T21:54:23.037Z,84.32
2022-11-14T21:57:27.931Z,86.00
2022-11-14T22:00:32.453Z,81.35
2022-11-14T22:03:56.370Z,79.35
2022-11-14T22:07:06.586Z,81.95
2022-11-14T22:10:11.529Z,88.50
2022-11-14T22:13:16.403Z,81.35
2022-11-14T22:16:21.070Z,82.13
2022-11-14T22:19:25.377Z,83.60
2022-11-14T22:22:29.978Z,83.45
2022-11-14T22:25:34.863Z,87.40
2022-11-14T22:28:40.125Z,79.43
2022-11-14T22:31:45.249Z,72.80
2022-11-14T22:34:49.726Z,71.70
2022-11-14T22:37:54.391Z,72.78
2022-11-14T22:40:59.753Z,70.50
2022-11-14T22:44:04.717Z,71.40
2022-11-14T22:47:09.320Z,71.35
2022-11-14T22:50:14.351Z,68.40
2022-11-14T22:53:18.693Z,77.28
2022-11-14T22:56:28.436Z,68.93
2022-11-14T22:59:33.525Z,62.25
2022-11-14T23:02:38.194Z,61.80
2022-11-14T23:05:42.935Z,59.08
2022-11-14T23:08:47.870Z,60.60
2022-11-14T23:11:52.776Z,56.03
2022-11-14T23:14:57.630Z,53.17
2022-11-14T23:18:02.327Z,50.92
2022-11-14T23:21:24.871Z,50.28
2022-11-14T23:24:29.604Z,48.33
2022-11-14T23:27:34.301Z,47.88
2022-11-14T23:30:39.220Z,48.67
2022-11-14T23:33:44.259Z,47.22
2022-11-14T23:36:48.974Z,46.50
2022-11-14T23:39:53.537Z,47.17
2022-11-14T23:42:58.225Z,48.28
2022-11-14T23:46:02.908Z,48.35
2022-11-14T23:49:07.711Z,48.70
2022-11-14T23:52:12.606Z,48.22
2022-11-14T23:55:17.344Z,50.35
2022-11-14T23:58:23.009Z,49.13
